Cap Castillo — A8PI5 — position and weather

sailwx.info

Track history (hours):
 
Tides and Currents Weather Stations Pressure Air Temp Water Temp Dewpoint Dewpoint Depression Visibility Wind Speed Wind Dir Waves Ship Positions

Cap Castillo

Last reported at 2017-Jun-17 11:04 UTC. Time now 2017-Jun-29 07:36 UTC.
Position S 24°16' W 045°31'.
Warning: this ship's position is 11 days out of date.

Length 215 m; draft 11.1 m.

Type: Ship. MMSI: 636091558.

Date/timePositionNaut miles runAvg speedWind from/ knotsBaromVisibWave heightAir tempDewpointWater temp
2017-Jun-17 11:04S 24°16' W 045°31'115.7
2017-Jun-17 11:00S 24°16' W 045°33'815.3
2017-Jun-17 10:27S 24°18' W 045°42'815.3
2017-Jun-17 09:56S 24°19' W 045°50'715.2
2017-Jun-17 09:29S 24°20' W 045°58'714.9
2017-Jun-17 09:00S 24°21' W 046°05'713.6
2017-Jun-17 08:30S 24°21' W 046°13'714.8
2017-Jun-17 08:01S 24°16' W 046°19'714.5
2017-Jun-17 07:31S 24°10' W 046°23'815.0
2017-Jun-17 07:00S 24°03' W 046°21'5 9.0
2017-Jun-17 06:30S 23°60' W 046°18'1 2.8
2017-Jun-17 06:01S 23°58' W 046°18'0 0.0
2017-Jun-17 05:19S 23°58' W 046°18'0 0.0
2017-Jun-17 04:55S 23°58' W 046°18'0 0.0
2017-Jun-17 03:49S 23°58' W 046°18'0 0.0
2017-Jun-17 03:19S 23°58' W 046°18'0 0.0
2017-Jun-17 02:58S 23°58' W 046°18'0 0.0
2017-Jun-17 02:25S 23°58' W 046°18'0 0.0
2017-Jun-16 23:06S 23°58' W 046°18'0 0.0
2017-Jun-16 22:36S 23°58' W 046°18'0 0.0
2017-Jun-16 21:54S 23°58' W 046°18'0 0.0
2017-Jun-16 21:24S 23°58' W 046°18'0 0.0
2017-Jun-16 20:30S 23°58' W 046°18'0 0.0
2017-Jun-16 19:54S 23°58' W 046°18'0 0.0
2017-Jun-16 19:24S 23°58' W 046°18'0 0.0
2017-Jun-16 19:00S 23°58' W 046°18'0 0.0
2017-Jun-16 18:30S 23°58' W 046°18'0 0.0
2017-Jun-16 17:54S 23°58' W 046°18'0 0.0
2017-Jun-16 16:30S 23°58' W 046°18'0 0.0
2017-Jun-16 16:00S 23°58' W 046°18'0 0.0
2017-Jun-16 15:30S 23°58' W 046°18'0 0.0
2017-Jun-16 15:00S 23°58' W 046°18'0 0.0
2017-Jun-16 12:56S 23°58' W 046°18'0 0.0
2017-Jun-16 12:14S 23°58' W 046°18'0 0.0
2017-Jun-16 11:53S 23°58' W 046°18'1 2.2
2017-Jun-16 11:26S 23°59' W 046°17'3 7.5
2017-Jun-16 11:00S 24°01' W 046°20'713.3
2017-Jun-16 10:30S 24°07' W 046°24'4 7.3
2017-Jun-16 10:00S 24°10' W 046°27'0 0.8
2017-Jun-16 09:30S 24°10' W 046°26'1 1.3
2017-Jun-16 09:00S 24°09' W 046°26'1 2.0
2017-Jun-16 08:30S 24°08' W 046°26'0 0.3
2017-Jun-16 08:00S 24°09' W 046°26'0 0.4
2017-Jun-16 07:30S 24°09' W 046°26'0 0.3
2017-Jun-16 07:00S 24°09' W 046°26'0 0.3
2017-Jun-16 06:30S 24°09' W 046°26'0 0.3
2017-Jun-16 06:00S 24°09' W 046°26'0 0.3
2017-Jun-16 05:30S 24°09' W 046°26'0 0.3
2017-Jun-16 05:00S 24°10' W 046°26'0 0.4
2017-Jun-16 04:30S 24°10' W 046°26'0 0.6
2017-Jun-16 04:00S 24°10' W 046°26'0 0.8
2017-Jun-16 03:30S 24°10' W 046°25'0 0.7
2017-Jun-16 03:00S 24°11' W 046°25'0 0.5
2017-Jun-16 02:30S 24°11' W 046°25'0 0.3
2017-Jun-16 02:00S 24°11' W 046°25'0 1.0
2017-Jun-16 01:30S 24°11' W 046°25'510.0
2017-Jun-16 01:00S 24°15' W 046°27'713.6
2017-Jun-16 00:30S 24°22' W 046°29'713.6
2017-Jun-16 00:00S 24°28' W 046°32'713.6
2017-Jun-15 23:30S 24°34' W 046°35'713.3
2017-Jun-15 23:00S 24°39' W 046°40'713.6
2017-Jun-15 22:30S 24°44' W 046°46'1013.6
2017-Jun-15 21:47S 24°50' W 046°54'413.5
2017-Jun-15 21:30S 24°53' W 046°57'1313.7
2017-Jun-15 20:34S 25°01' W 047°07'  
2017-Jun-13 06:37S 24°45' W 046°43'319.2
2017-Jun-13 06:29S 24°43' W 046°42'919.2
2017-Jun-13 06:00S 24°36' W 046°35'1019.3
2017-Jun-13 05:30S 24°27' W 046°31'1019.3
2017-Jun-13 05:00S 24°18' W 046°28'1019.3
2017-Jun-13 04:30S 24°09' W 046°24'918.0
2017-Jun-13 04:00S 24°00' W 046°20'3 6.0
2017-Jun-13 03:29S 23°58' W 046°18'0 0.0
2017-Jun-12 10:30S 23°58' W 046°18'2 4.0
2017-Jun-12 10:01S 23°60' W 046°19'612.0
2017-Jun-12 09:30S 24°05' W 046°22'713.9
2017-Jun-12 09:00S 24°12' W 046°24'3 5.6
2017-Jun-12 08:30S 24°14' W 046°24'1 1.3
2017-Jun-12 08:00S 24°15' W 046°24'2 3.8
2017-Jun-12 07:30S 24°15' W 046°22'2 4.9
2017-Jun-12 07:00S 24°15' W 046°20'0 0.9
2017-Jun-12 06:30S 24°15' W 046°20'0 0.7
2017-Jun-12 06:00S 24°15' W 046°20'0 0.7
2017-Jun-12 05:30S 24°15' W 046°21'0 0.6
2017-Jun-12 05:00S 24°15' W 046°21'0 0.7
2017-Jun-12 04:30S 24°15' W 046°21'0 0.7
2017-Jun-12 04:00S 24°15' W 046°22'0 0.5
2017-Jun-12 03:30S 24°16' W 046°22'0 0.4
2017-Jun-12 03:00S 24°16' W 046°22'0 0.3
2017-Jun-12 02:30S 24°16' W 046°22'0 0.2
2017-Jun-12 02:00S 24°16' W 046°22'0 0.4
2017-Jun-12 01:30S 24°16' W 046°22'1 1.2
2017-Jun-12 01:00S 24°17' W 046°21'3 6.1
2017-Jun-12 00:30S 24°17' W 046°18'815.5
2017-Jun-12 00:00S 24°22' W 046°11'3416.7
2017-Jun-11 21:58S 24°17' W 045°35'  
Track history (hours):
 
Tides and Currents Weather Stations Pressure Air Temp Water Temp Dewpoint Dewpoint Depression Visibility Wind Speed Wind Dir Waves Ship Positions

Cap Castillo

Last reported at 2017-Jun-17 11:04 UTC. Time now 2017-Jun-29 07:36 UTC.
Position S 24°16' W 045°31'.
Warning: this ship's position is 11 days out of date.

Length 215 m; draft 11.1 m.

Type: Ship. MMSI: 636091558.

Date/timePositionNaut miles runAvg speedWind from/ knotsBaromVisibWave heightAir tempDewpointWater temp
2017-Jun-17 11:04S 24°16' W 045°31'115.7
2017-Jun-17 11:00S 24°16' W 045°33'815.3
2017-Jun-17 10:27S 24°18' W 045°42'815.3
2017-Jun-17 09:56S 24°19' W 045°50'715.2
2017-Jun-17 09:29S 24°20' W 045°58'714.9
2017-Jun-17 09:00S 24°21' W 046°05'713.6
2017-Jun-17 08:30S 24°21' W 046°13'714.8
2017-Jun-17 08:01S 24°16' W 046°19'714.5
2017-Jun-17 07:31S 24°10' W 046°23'815.0
2017-Jun-17 07:00S 24°03' W 046°21'5 9.0
2017-Jun-17 06:30S 23°60' W 046°18'1 2.8
2017-Jun-17 06:01S 23°58' W 046°18'0 0.0
2017-Jun-17 05:19S 23°58' W 046°18'0 0.0
2017-Jun-17 04:55S 23°58' W 046°18'0 0.0
2017-Jun-17 03:49S 23°58' W 046°18'0 0.0
2017-Jun-17 03:19S 23°58' W 046°18'0 0.0
2017-Jun-17 02:58S 23°58' W 046°18'0 0.0
2017-Jun-17 02:25S 23°58' W 046°18'0 0.0
2017-Jun-16 23:06S 23°58' W 046°18'0 0.0
2017-Jun-16 22:36S 23°58' W 046°18'0 0.0
2017-Jun-16 21:54S 23°58' W 046°18'0 0.0
2017-Jun-16 21:24S 23°58' W 046°18'0 0.0
2017-Jun-16 20:30S 23°58' W 046°18'0 0.0
2017-Jun-16 19:54S 23°58' W 046°18'0 0.0
2017-Jun-16 19:24S 23°58' W 046°18'0 0.0
2017-Jun-16 19:00S 23°58' W 046°18'0 0.0
2017-Jun-16 18:30S 23°58' W 046°18'0 0.0
2017-Jun-16 17:54S 23°58' W 046°18'0 0.0
2017-Jun-16 16:30S 23°58' W 046°18'0 0.0
2017-Jun-16 16:00S 23°58' W 046°18'0 0.0
2017-Jun-16 15:30S 23°58' W 046°18'0 0.0
2017-Jun-16 15:00S 23°58' W 046°18'0 0.0
2017-Jun-16 12:56S 23°58' W 046°18'0 0.0
2017-Jun-16 12:14S 23°58' W 046°18'0 0.0
2017-Jun-16 11:53S 23°58' W 046°18'1 2.2
2017-Jun-16 11:26S 23°59' W 046°17'3 7.5
2017-Jun-16 11:00S 24°01' W 046°20'713.3
2017-Jun-16 10:30S 24°07' W 046°24'4 7.3
2017-Jun-16 10:00S 24°10' W 046°27'0 0.8
2017-Jun-16 09:30S 24°10' W 046°26'1 1.3
2017-Jun-16 09:00S 24°09' W 046°26'1 2.0
2017-Jun-16 08:30S 24°08' W 046°26'0 0.3
2017-Jun-16 08:00S 24°09' W 046°26'0 0.4
2017-Jun-16 07:30S 24°09' W 046°26'0 0.3
2017-Jun-16 07:00S 24°09' W 046°26'0 0.3
2017-Jun-16 06:30S 24°09' W 046°26'0 0.3
2017-Jun-16 06:00S 24°09' W 046°26'0 0.3
2017-Jun-16 05:30S 24°09' W 046°26'0 0.3
2017-Jun-16 05:00S 24°10' W 046°26'0 0.4
2017-Jun-16 04:30S 24°10' W 046°26'0 0.6
2017-Jun-16 04:00S 24°10' W 046°26'0 0.8
2017-Jun-16 03:30S 24°10' W 046°25'0 0.7
2017-Jun-16 03:00S 24°11' W 046°25'0 0.5
2017-Jun-16 02:30S 24°11' W 046°25'0 0.3
2017-Jun-16 02:00S 24°11' W 046°25'0 1.0
2017-Jun-16 01:30S 24°11' W 046°25'510.0
2017-Jun-16 01:00S 24°15' W 046°27'713.6
2017-Jun-16 00:30S 24°22' W 046°29'713.6
2017-Jun-16 00:00S 24°28' W 046°32'713.6
2017-Jun-15 23:30S 24°34' W 046°35'713.3
2017-Jun-15 23:00S 24°39' W 046°40'713.6
2017-Jun-15 22:30S 24°44' W 046°46'1013.6
2017-Jun-15 21:47S 24°50' W 046°54'413.5
2017-Jun-15 21:30S 24°53' W 046°57'1313.7
2017-Jun-15 20:34S 25°01' W 047°07'  
2017-Jun-13 06:37S 24°45' W 046°43'319.2
2017-Jun-13 06:29S 24°43' W 046°42'919.2
2017-Jun-13 06:00S 24°36' W 046°35'1019.3
2017-Jun-13 05:30S 24°27' W 046°31'1019.3
2017-Jun-13 05:00S 24°18' W 046°28'1019.3
2017-Jun-13 04:30S 24°09' W 046°24'918.0
2017-Jun-13 04:00S 24°00' W 046°20'3 6.0
2017-Jun-13 03:29S 23°58' W 046°18'0 0.0
2017-Jun-12 10:30S 23°58' W 046°18'2 4.0
2017-Jun-12 10:01S 23°60' W 046°19'612.0
2017-Jun-12 09:30S 24°05' W 046°22'713.9
2017-Jun-12 09:00S 24°12' W 046°24'3 5.6
2017-Jun-12 08:30S 24°14' W 046°24'1 1.3
2017-Jun-12 08:00S 24°15' W 046°24'2 3.8
2017-Jun-12 07:30S 24°15' W 046°22'2 4.9
2017-Jun-12 07:00S 24°15' W 046°20'0 0.9
2017-Jun-12 06:30S 24°15' W 046°20'0 0.7
2017-Jun-12 06:00S 24°15' W 046°20'0 0.7
2017-Jun-12 05:30S 24°15' W 046°21'0 0.6
2017-Jun-12 05:00S 24°15' W 046°21'0 0.7
2017-Jun-12 04:30S 24°15' W 046°21'0 0.7
2017-Jun-12 04:00S 24°15' W 046°22'0 0.5
2017-Jun-12 03:30S 24°16' W 046°22'0 0.4
2017-Jun-12 03:00S 24°16' W 046°22'0 0.3
2017-Jun-12 02:30S 24°16' W 046°22'0 0.2
2017-Jun-12 02:00S 24°16' W 046°22'0 0.4
2017-Jun-12 01:30S 24°16' W 046°22'1 1.2
2017-Jun-12 01:00S 24°17' W 046°21'3 6.1
2017-Jun-12 00:30S 24°17' W 046°18'815.5
2017-Jun-12 00:00S 24°22' W 046°11'3416.7
2017-Jun-11 21:58S 24°17' W 045°35'  

Dump ship's entire track history